sensor_id;sensor_type;location;lat;lon;timestamp;temperature;humidity
52203;DHT22;38173;52.850;6.970;2023-06-22T00:01:47;17.40;99.90
52203;DHT22;38173;52.850;6.970;2023-06-22T00:04:14;17.30;99.90
52203;DHT22;38173;52.850;6.970;2023-06-22T00:06:41;17.30;99.90
52203;DHT22;38173;52.850;6.970;2023-06-22T00:09:07;17.30;99.90
52203;DHT22;38173;52.850;6.970;2023-06-22T00:11:36;17.30;99.90
52203;DHT22;38173;52.850;6.970;2023-06-22T00:14:05;17.30;99.90
52203;DHT22;38173;52.850;6.970;2023-06-22T00:16:36;17.20;99.90
52203;DHT22;38173;52.850;6.970;2023-06-22T00:19:02;17.20;99.90
52203;DHT22;38173;52.850;6.970;2023-06-22T00:21:29;17.10;99.90
52203;DHT22;38173;52.850;6.970;2023-06-22T00:23:56;17.10;99.90
52203;DHT22;38173;52.850;6.970;2023-06-22T00:26:23;17.10;99.90
52203;DHT22;38173;52.850;6.970;2023-06-22T00:28:49;17.10;99.90
52203;DHT22;38173;52.850;6.970;2023-06-22T00:31:14;17.10;99.90
52203;DHT22;38173;52.850;6.970;2023-06-22T00:33:41;17.10;99.90
52203;DHT22;38173;52.850;6.970;2023-06-22T00:36:07;17.10;99.90
52203;DHT22;38173;52.850;6.970;2023-06-22T00:38:33;17.00;99.90
52203;DHT22;38173;52.850;6.970;2023-06-22T00:40:59;17.00;99.90
52203;DHT22;38173;52.850;6.970;2023-06-22T00:43:25;17.00;99.90
52203;DHT22;38173;52.850;6.970;2023-06-22T00:45:51;17.00;99.90
52203;DHT22;38173;52.850;6.970;2023-06-22T00:48:17;17.10;99.90
52203;DHT22;38173;52.850;6.970;2023-06-22T00:50:43;17.00;99.90
52203;DHT22;38173;52.850;6.970;2023-06-22T00:53:09;17.00;99.90
52203;DHT22;38173;52.850;6.970;2023-06-22T00:55:36;17.10;99.90
52203;DHT22;38173;52.850;6.970;2023-06-22T00:58:04;17.00;99.90
52203;DHT22;38173;52.850;6.970;2023-06-22T01:00:31;17.00;99.90
52203;DHT22;38173;52.850;6.970;2023-06-22T01:02:59;17.00;99.90
52203;DHT22;38173;52.850;6.970;2023-06-22T01:05:25;16.90;99.90
52203;DHT22;38173;52.850;6.970;2023-06-22T01:13:41;16.80;99.90
52203;DHT22;38173;52.850;6.970;2023-06-22T01:16:18;16.70;99.90
52203;DHT22;38173;52.850;6.970;2023-06-22T01:18:48;16.70;99.90
52203;DHT22;38173;52.850;6.970;2023-06-22T01:21:17;16.70;99.90
52203;DHT22;38173;52.850;6.970;2023-06-22T01:24:45;16.70;99.90
52203;DHT22;38173;52.850;6.970;2023-06-22T01:29:56;16.60;99.90
52203;DHT22;38173;52.850;6.970;2023-06-22T01:32:36;16.50;99.90
52203;DHT22;38173;52.850;6.970;2023-06-22T01:35:06;16.50;99.90
52203;DHT22;38173;52.850;6.970;2023-06-22T01:37:36;16.50;99.90
52203;DHT22;38173;52.850;6.970;2023-06-22T01:40:04;16.50;99.90
52203;DHT22;38173;52.850;6.970;2023-06-22T01:42:32;16.50;99.90
52203;DHT22;38173;52.850;6.970;2023-06-22T01:44:58;16.50;99.90
52203;DHT22;38173;52.850;6.970;2023-06-22T01:47:33;16.60;99.90
52203;DHT22;38173;52.850;6.970;2023-06-22T01:49:59;16.50;99.90
52203;DHT22;38173;52.850;6.970;2023-06-22T01:52:26;16.50;99.90
52203;DHT22;38173;52.850;6.970;2023-06-22T01:54:51;16.50;99.90
52203;DHT22;38173;52.850;6.970;2023-06-22T01:57:17;16.50;99.90
52203;DHT22;38173;52.850;6.970;2023-06-22T01:59:53;16.50;99.90
52203;DHT22;38173;52.850;6.970;2023-06-22T02:02:23;16.40;99.90
52203;DHT22;38173;52.850;6.970;2023-06-22T02:04:58;16.40;99.90
52203;DHT22;38173;52.850;6.970;2023-06-22T02:07:30;16.30;99.90
52203;DHT22;38173;52.850;6.970;2023-06-22T02:09:59;16.30;99.90
52203;DHT22;38173;52.850;6.970;2023-06-22T02:12:26;16.30;99.90
52203;DHT22;38173;52.850;6.970;2023-06-22T02:14:56;16.20;99.90
52203;DHT22;38173;52.850;6.970;2023-06-22T02:17:24;16.20;99.90
52203;DHT22;38173;52.850;6.970;2023-06-22T02:19:50;16.10;99.90
52203;DHT22;38173;52.850;6.970;2023-06-22T02:22:16;16.10;99.90
52203;DHT22;38173;52.850;6.970;2023-06-22T02:24:42;16.10;99.90
52203;DHT22;38173;52.850;6.970;2023-06-22T02:27:08;16.10;99.90
52203;DHT22;38173;52.850;6.970;2023-06-22T02:29:34;16.10;99.90
52203;DHT22;38173;52.850;6.970;2023-06-22T02:32:01;16.00;99.90
52203;DHT22;38173;52.850;6.970;2023-06-22T02:34:29;16.00;99.90
52203;DHT22;38173;52.850;6.970;2023-06-22T02:36:55;16.10;99.90
52203;DHT22;38173;52.850;6.970;2023-06-22T02:39:23;16.10;99.90
52203;DHT22;38173;52.850;6.970;2023-06-22T02:41:51;16.00;99.90
52203;DHT22;38173;52.850;6.970;2023-06-22T02:44:17;16.00;99.90
52203;DHT22;38173;52.850;6.970;2023-06-22T02:46:43;16.00;99.90
52203;DHT22;38173;52.850;6.970;2023-06-22T02:49:10;15.90;99.90
52203;DHT22;38173;52.850;6.970;2023-06-22T02:51:44;15.80;99.90
52203;DHT22;38173;52.850;6.970;2023-06-22T02:54:10;15.70;99.90
52203;DHT22;38173;52.850;6.970;2023-06-22T02:56:36;15.50;99.90
52203;DHT22;38173;52.850;6.970;2023-06-22T02:59:03;15.40;99.90
52203;DHT22;38173;52.850;6.970;2023-06-22T03:01:30;15.50;99.90
52203;DHT22;38173;52.850;6.970;2023-06-22T03:04:04;15.40;99.90
52203;DHT22;38173;52.850;6.970;2023-06-22T03:06:33;15.40;99.90
52203;DHT22;38173;52.850;6.970;2023-06-22T03:09:05;15.40;99.90
52203;DHT22;38173;52.850;6.970;2023-06-22T03:11:32;15.40;99.90
52203;DHT22;38173;52.850;6.970;2023-06-22T03:13:58;15.50;99.90
52203;DHT22;38173;52.850;6.970;2023-06-22T03:16:25;15.50;99.90
52203;DHT22;38173;52.850;6.970;2023-06-22T03:18:55;15.50;99.90
52203;DHT22;38173;52.850;6.970;2023-06-22T03:21:28;15.60;99.90
52203;DHT22;38173;52.850;6.970;2023-06-22T03:23:55;15.60;99.90
52203;DHT22;38173;52.850;6.970;2023-06-22T03:26:21;15.60;99.90
52203;DHT22;38173;52.850;6.970;2023-06-22T03:28:47;15.60;99.90
52203;DHT22;38173;52.850;6.970;2023-06-22T03:31:14;15.50;99.90
52203;DHT22;38173;52.850;6.970;2023-06-22T03:33:40;15.50;99.90
52203;DHT22;38173;52.850;6.970;2023-06-22T03:36:08;15.40;99.90
52203;DHT22;38173;52.850;6.970;2023-06-22T03:38:35;15.40;99.90
52203;DHT22;38173;52.850;6.970;2023-06-22T03:41:01;15.50;99.90
52203;DHT22;38173;52.850;6.970;2023-06-22T03:43:28;15.50;99.90
52203;DHT22;38173;52.850;6.970;2023-06-22T03:45:54;15.60;99.90
52203;DHT22;38173;52.850;6.970;2023-06-22T03:48:20;15.60;99.90
52203;DHT22;38173;52.850;6.970;2023-06-22T03:50:46;15.60;99.90
52203;DHT22;38173;52.850;6.970;2023-06-22T03:53:16;15.60;99.90
52203;DHT22;38173;52.850;6.970;2023-06-22T03:55:52;15.60;99.90
52203;DHT22;38173;52.850;6.970;2023-06-22T03:58:19;15.60;99.90
52203;DHT22;38173;52.850;6.970;2023-06-22T04:00:49;15.50;99.90
52203;DHT22;38173;52.850;6.970;2023-06-22T04:03:18;15.50;99.90
52203;DHT22;38173;52.850;6.970;2023-06-22T04:05:45;15.50;99.90
52203;DHT22;38173;52.850;6.970;2023-06-22T04:08:12;15.50;99.90
52203;DHT22;38173;52.850;6.970;2023-06-22T04:10:41;15.50;99.90
52203;DHT22;38173;52.850;6.970;2023-06-22T04:13:07;15.40;99.90
52203;DHT22;38173;52.850;6.970;2023-06-22T04:15:33;15.40;99.90
52203;DHT22;38173;52.850;6.970;2023-06-22T04:18:02;15.30;99.90
52203;DHT22;38173;52.850;6.970;2023-06-22T04:20:28;15.30;99.90
52203;DHT22;38173;52.850;6.970;2023-06-22T04:22:56;15.30;99.90
52203;DHT22;38173;52.850;6.970;2023-06-22T04:25:22;15.20;99.90
52203;DHT22;38173;52.850;6.970;2023-06-22T04:27:51;15.20;99.90
52203;DHT22;38173;52.850;6.970;2023-06-22T04:30:17;15.30;99.90
52203;DHT22;38173;52.850;6.970;2023-06-22T04:32:44;15.30;99.90
52203;DHT22;38173;52.850;6.970;2023-06-22T04:35:10;15.40;99.90
52203;DHT22;38173;52.850;6.970;2023-06-22T04:37:36;15.40;99.90
52203;DHT22;38173;52.850;6.970;2023-06-22T04:40:03;15.50;99.90
52203;DHT22;38173;52.850;6.970;2023-06-22T04:42:31;15.50;99.90
52203;DHT22;38173;52.850;6.970;2023-06-22T04:48:08;15.50;99.90
52203;DHT22;38173;52.850;6.970;2023-06-22T04:50:36;15.60;99.90
52203;DHT22;38173;52.850;6.970;2023-06-22T04:53:05;15.60;99.90
52203;DHT22;38173;52.850;6.970;2023-06-22T04:55:34;15.70;99.90
52203;DHT22;38173;52.850;6.970;2023-06-22T04:58:05;15.70;99.90
52203;DHT22;38173;52.850;6.970;2023-06-22T05:00:31;15.80;99.90
52203;DHT22;38173;52.850;6.970;2023-06-22T05:02:59;15.90;99.90
52203;DHT22;38173;52.850;6.970;2023-06-22T05:05:29;16.00;99.90
52203;DHT22;38173;52.850;6.970;2023-06-22T05:07:57;16.10;99.90
52203;DHT22;38173;52.850;6.970;2023-06-22T05:10:26;16.10;99.90
52203;DHT22;38173;52.850;6.970;2023-06-22T05:12:54;16.30;99.90
52203;DHT22;38173;52.850;6.970;2023-06-22T05:15:20;16.40;99.90
52203;DHT22;38173;52.850;6.970;2023-06-22T05:17:47;16.50;99.90
52203;DHT22;38173;52.850;6.970;2023-06-22T05:20:13;16.60;99.90
52203;DHT22;38173;52.850;6.970;2023-06-22T05:22:39;16.70;99.90
52203;DHT22;38173;52.850;6.970;2023-06-22T05:25:09;16.80;99.90
52203;DHT22;38173;52.850;6.970;2023-06-22T05:27:34;16.90;99.90
52203;DHT22;38173;52.850;6.970;2023-06-22T05:30:06;17.00;99.90
52203;DHT22;38173;52.850;6.970;2023-06-22T05:32:32;17.10;99.90
52203;DHT22;38173;52.850;6.970;2023-06-22T05:35:05;17.30;99.90
52203;DHT22;38173;52.850;6.970;2023-06-22T05:37:31;17.30;99.90
52203;DHT22;38173;52.850;6.970;2023-06-22T05:39:57;17.50;99.90
52203;DHT22;38173;52.850;6.970;2023-06-22T05:42:23;17.60;99.90
52203;DHT22;38173;52.850;6.970;2023-06-22T05:44:57;17.70;99.90
52203;DHT22;38173;52.850;6.970;2023-06-22T05:47:24;17.80;99.90
52203;DHT22;38173;52.850;6.970;2023-06-22T05:49:53;17.90;99.90
52203;DHT22;38173;52.850;6.970;2023-06-22T05:52:19;18.10;99.90
52203;DHT22;38173;52.850;6.970;2023-06-22T05:54:45;18.20;99.90
52203;DHT22;38173;52.850;6.970;2023-06-22T05:57:10;18.30;99.90
52203;DHT22;38173;52.850;6.970;2023-06-22T05:59:36;18.40;99.90
52203;DHT22;38173;52.850;6.970;2023-06-22T06:02:02;18.60;99.90
52203;DHT22;38173;52.850;6.970;2023-06-22T06:04:29;18.60;99.90
52203;DHT22;38173;52.850;6.970;2023-06-22T06:06:55;18.70;99.90
52203;DHT22;38173;52.850;6.970;2023-06-22T06:09:27;18.80;99.90
52203;DHT22;38173;52.850;6.970;2023-06-22T06:11:59;18.90;99.90
52203;DHT22;38173;52.850;6.970;2023-06-22T06:14:26;19.00;99.90
52203;DHT22;38173;52.850;6.970;2023-06-22T06:17:01;19.10;99.90
52203;DHT22;38173;52.850;6.970;2023-06-22T06:19:27;19.10;99.90
52203;DHT22;38173;52.850;6.970;2023-06-22T06:21:53;19.20;99.90
52203;DHT22;38173;52.850;6.970;2023-06-22T06:24:22;19.40;99.90
52203;DHT22;38173;52.850;6.970;2023-06-22T06:26:48;19.40;99.90
52203;DHT22;38173;52.850;6.970;2023-06-22T06:29:14;19.50;99.90
52203;DHT22;38173;52.850;6.970;2023-06-22T06:31:41;19.60;99.90
52203;DHT22;38173;52.850;6.970;2023-06-22T06:34:07;19.70;99.90
52203;DHT22;38173;52.850;6.970;2023-06-22T06:36:33;19.80;99.90
52203;DHT22;38173;52.850;6.970;2023-06-22T06:39:02;19.90;99.90
52203;DHT22;38173;52.850;6.970;2023-06-22T06:41:29;20.00;99.90
52203;DHT22;38173;52.850;6.970;2023-06-22T06:43:54;20.10;99.90
52203;DHT22;38173;52.850;6.970;2023-06-22T06:46:21;20.20;99.90
52203;DHT22;38173;52.850;6.970;2023-06-22T06:48:47;20.30;99.90
52203;DHT22;38173;52.850;6.970;2023-06-22T06:51:12;20.30;99.90
52203;DHT22;38173;52.850;6.970;2023-06-22T06:53:38;20.40;99.90
52203;DHT22;38173;52.850;6.970;2023-06-22T06:56:10;20.40;99.90
52203;DHT22;38173;52.850;6.970;2023-06-22T06:58:36;20.40;99.90
52203;DHT22;38173;52.850;6.970;2023-06-22T07:01:05;20.50;99.90
52203;DHT22;38173;52.850;6.970;2023-06-22T07:03:34;20.50;99.90
52203;DHT22;38173;52.850;6.970;2023-06-22T07:06:00;20.60;99.90
52203;DHT22;38173;52.850;6.970;2023-06-22T07:08:27;20.60;99.90
52203;DHT22;38173;52.850;6.970;2023-06-22T07:10:53;20.70;99.90
52203;DHT22;38173;52.850;6.970;2023-06-22T07:13:18;20.80;99.90
52203;DHT22;38173;52.850;6.970;2023-06-22T07:15:44;20.90;99.90
52203;DHT22;38173;52.850;6.970;2023-06-22T07:18:10;20.90;99.90
52203;DHT22;38173;52.850;6.970;2023-06-22T07:20:36;21.10;99.90
52203;DHT22;38173;52.850;6.970;2023-06-22T07:23:02;21.10;99.90
52203;DHT22;38173;52.850;6.970;2023-06-22T07:25:28;21.10;99.90
52203;DHT22;38173;52.850;6.970;2023-06-22T07:27:59;21.20;99.90
52203;DHT22;38173;52.850;6.970;2023-06-22T07:30:25;21.30;99.90
52203;DHT22;38173;52.850;6.970;2023-06-22T07:32:51;21.30;99.90
52203;DHT22;38173;52.850;6.970;2023-06-22T07:35:18;21.30;99.90
52203;DHT22;38173;52.850;6.970;2023-06-22T07:37:44;21.40;99.90
52203;DHT22;38173;52.850;6.970;2023-06-22T07:40:11;21.60;99.90
52203;DHT22;38173;52.850;6.970;2023-06-22T07:42:39;21.70;99.90
52203;DHT22;38173;52.850;6.970;2023-06-22T07:45:06;21.90;99.90
52203;DHT22;38173;52.850;6.970;2023-06-22T07:47:34;22.00;99.90
52203;DHT22;38173;52.850;6.970;2023-06-22T07:50:01;22.00;99.90
52203;DHT22;38173;52.850;6.970;2023-06-22T07:52:28;22.20;99.90
52203;DHT22;38173;52.850;6.970;2023-06-22T07:54:54;22.30;99.90
52203;DHT22;38173;52.850;6.970;2023-06-22T07:57:20;22.30;99.90
52203;DHT22;38173;52.850;6.970;2023-06-22T07:59:47;22.30;99.90
52203;DHT22;38173;52.850;6.970;2023-06-22T08:02:13;22.30;99.90
52203;DHT22;38173;52.850;6.970;2023-06-22T08:04:39;22.30;99.90
52203;DHT22;38173;52.850;6.970;2023-06-22T08:07:05;22.40;99.90
52203;DHT22;38173;52.850;6.970;2023-06-22T08:09:35;22.50;99.90
52203;DHT22;38173;52.850;6.970;2023-06-22T08:12:01;22.50;99.90
52203;DHT22;38173;52.850;6.970;2023-06-22T08:14:27;22.60;99.90
52203;DHT22;38173;52.850;6.970;2023-06-22T08:16:53;22.80;99.90
52203;DHT22;38173;52.850;6.970;2023-06-22T08:19:22;22.90;99.90
52203;DHT22;38173;52.850;6.970;2023-06-22T08:21:47;23.00;99.90
52203;DHT22;38173;52.850;6.970;2023-06-22T08:24:13;23.10;99.90
52203;DHT22;38173;52.850;6.970;2023-06-22T08:26:39;23.20;99.90
52203;DHT22;38173;52.850;6.970;2023-06-22T08:29:05;23.30;99.90
52203;DHT22;38173;52.850;6.970;2023-06-22T08:31:31;23.30;99.90
52203;DHT22;38173;52.850;6.970;2023-06-22T08:34:00;23.40;99.90
52203;DHT22;38173;52.850;6.970;2023-06-22T08:36:26;23.40;99.90
52203;DHT22;38173;52.850;6.970;2023-06-22T08:38:54;23.50;99.90
52203;DHT22;38173;52.850;6.970;2023-06-22T08:41:27;23.70;99.90
52203;DHT22;38173;52.850;6.970;2023-06-22T08:43:53;23.90;99.90
52203;DHT22;38173;52.850;6.970;2023-06-22T08:46:19;24.00;99.90
52203;DHT22;38173;52.850;6.970;2023-06-22T08:48:49;24.10;99.90
52203;DHT22;38173;52.850;6.970;2023-06-22T08:51:16;24.20;99.90
52203;DHT22;38173;52.850;6.970;2023-06-22T08:53:42;24.20;99.90
52203;DHT22;38173;52.850;6.970;2023-06-22T08:56:08;24.20;99.90
52203;DHT22;38173;52.850;6.970;2023-06-22T08:58:34;24.30;99.90
52203;DHT22;38173;52.850;6.970;2023-06-22T09:00:59;24.40;99.90
52203;DHT22;38173;52.850;6.970;2023-06-22T09:03:26;24.40;99.90
52203;DHT22;38173;52.850;6.970;2023-06-22T09:05:52;24.40;99.90
52203;DHT22;38173;52.850;6.970;2023-06-22T09:08:18;24.40;99.90
52203;DHT22;38173;52.850;6.970;2023-06-22T09:10:44;24.50;99.90
52203;DHT22;38173;52.850;6.970;2023-06-22T09:13:10;24.60;99.90
52203;DHT22;38173;52.850;6.970;2023-06-22T09:15:35;24.70;99.90
52203;DHT22;38173;52.850;6.970;2023-06-22T09:18:01;24.80;99.90
52203;DHT22;38173;52.850;6.970;2023-06-22T09:20:27;24.80;99.90
52203;DHT22;38173;52.850;6.970;2023-06-22T09:22:59;24.80;99.90
52203;DHT22;38173;52.850;6.970;2023-06-22T09:25:25;24.90;99.90
52203;DHT22;38173;52.850;6.970;2023-06-22T09:27:51;24.90;99.90
52203;DHT22;38173;52.850;6.970;2023-06-22T09:30:16;24.90;99.90
52203;DHT22;38173;52.850;6.970;2023-06-22T09:32:42;25.10;99.90
52203;DHT22;38173;52.850;6.970;2023-06-22T09:35:09;25.10;99.90
52203;DHT22;38173;52.850;6.970;2023-06-22T09:37:36;25.00;99.90
52203;DHT22;38173;52.850;6.970;2023-06-22T09:40:03;24.90;99.90
52203;DHT22;38173;52.850;6.970;2023-06-22T09:42:34;24.90;99.90
52203;DHT22;38173;52.850;6.970;2023-06-22T09:45:00;24.90;99.90
52203;DHT22;38173;52.850;6.970;2023-06-22T09:47:27;25.00;99.90
52203;DHT22;38173;52.850;6.970;2023-06-22T09:49:53;25.20;99.90
52203;DHT22;38173;52.850;6.970;2023-06-22T09:52:24;25.40;99.90
52203;DHT22;38173;52.850;6.970;2023-06-22T09:54:50;25.50;99.90
52203;DHT22;38173;52.850;6.970;2023-06-22T09:57:15;25.50;99.90
52203;DHT22;38173;52.850;6.970;2023-06-22T09:59:42;25.40;99.90
52203;DHT22;38173;52.850;6.970;2023-06-22T10:02:11;25.30;99.90
52203;DHT22;38173;52.850;6.970;2023-06-22T10:04:36;25.40;99.90
52203;DHT22;38173;52.850;6.970;2023-06-22T10:07:03;25.50;99.90
52203;DHT22;38173;52.850;6.970;2023-06-22T10:09:29;25.70;99.90
52203;DHT22;38173;52.850;6.970;2023-06-22T10:11:55;25.80;99.90
52203;DHT22;38173;52.850;6.970;2023-06-22T10:14:20;26.10;99.90
52203;DHT22;38173;52.850;6.970;2023-06-22T10:16:49;26.30;99.90
52203;DHT22;38173;52.850;6.970;2023-06-22T10:19:15;26.30;99.90
52203;DHT22;38173;52.850;6.970;2023-06-22T10:21:42;26.30;99.90
52203;DHT22;38173;52.850;6.970;2023-06-22T10:24:08;26.40;99.90
52203;DHT22;38173;52.850;6.970;2023-06-22T10:26:35;26.30;99.90
52203;DHT22;38173;52.850;6.970;2023-06-22T10:29:04;26.30;99.90
52203;DHT22;38173;52.850;6.970;2023-06-22T10:31:30;26.30;99.90
52203;DHT22;38173;52.850;6.970;2023-06-22T10:33:56;26.10;99.90
52203;DHT22;38173;52.850;6.970;2023-06-22T10:36:27;26.00;99.90
52203;DHT22;38173;52.850;6.970;2023-06-22T10:38:53;26.00;99.90
52203;DHT22;38173;52.850;6.970;2023-06-22T10:41:23;26.10;99.90
52203;DHT22;38173;52.850;6.970;2023-06-22T10:43:49;26.10;99.90
52203;DHT22;38173;52.850;6.970;2023-06-22T10:46:15;25.90;99.90
52203;DHT22;38173;52.850;6.970;2023-06-22T10:48:40;25.80;99.90
52203;DHT22;38173;52.850;6.970;2023-06-22T10:51:06;25.70;99.90
52203;DHT22;38173;52.850;6.970;2023-06-22T10:53:32;25.80;99.90
52203;DHT22;38173;52.850;6.970;2023-06-22T10:55:58;26.10;99.90
52203;DHT22;38173;52.850;6.970;2023-06-22T10:58:30;26.20;99.90
52203;DHT22;38173;52.850;6.970;2023-06-22T11:00:59;26.60;99.90
52203;DHT22;38173;52.850;6.970;2023-06-22T11:03:24;27.20;99.90
52203;DHT22;38173;52.850;6.970;2023-06-22T11:05:50;27.60;99.10
52203;DHT22;38173;52.850;6.970;2023-06-22T11:08:16;27.90;98.20
52203;DHT22;38173;52.850;6.970;2023-06-22T11:10:43;28.10;99.00
52203;DHT22;38173;52.850;6.970;2023-06-22T11:13:09;28.20;96.90
52203;DHT22;38173;52.850;6.970;2023-06-22T11:15:35;28.10;98.40
52203;DHT22;38173;52.850;6.970;2023-06-22T11:18:01;28.20;96.70
52203;DHT22;38173;52.850;6.970;2023-06-22T11:20:28;28.30;95.60
52203;DHT22;38173;52.850;6.970;2023-06-22T11:22:59;28.50;97.20
52203;DHT22;38173;52.850;6.970;2023-06-22T11:25:29;28.50;96.40
52203;DHT22;38173;52.850;6.970;2023-06-22T11:28:06;28.50;94.30
52203;DHT22;38173;52.850;6.970;2023-06-22T11:30:32;28.50;94.80
52203;DHT22;38173;52.850;6.970;2023-06-22T11:32:59;28.20;94.60
52203;DHT22;38173;52.850;6.970;2023-06-22T11:35:25;28.10;95.00
52203;DHT22;38173;52.850;6.970;2023-06-22T11:37:54;27.90;93.80
52203;DHT22;38173;52.850;6.970;2023-06-22T11:41:15;27.80;94.00
52203;DHT22;38173;52.850;6.970;2023-06-22T11:43:37;27.70;92.70
52203;DHT22;38173;52.850;6.970;2023-06-22T11:46:03;27.60;92.30
52203;DHT22;38173;52.850;6.970;2023-06-22T11:48:30;27.60;93.50
52203;DHT22;38173;52.850;6.970;2023-06-22T11:50:55;27.70;94.30
52203;DHT22;38173;52.850;6.970;2023-06-22T11:53:26;27.70;94.00
52203;DHT22;38173;52.850;6.970;2023-06-22T11:55:52;27.80;93.40
52203;DHT22;38173;52.850;6.970;2023-06-22T11:58:23;27.80;93.10
52203;DHT22;38173;52.850;6.970;2023-06-22T12:00:49;27.90;92.60
52203;DHT22;38173;52.850;6.970;2023-06-22T12:03:18;27.90;92.30
52203;DHT22;38173;52.850;6.970;2023-06-22T12:05:53;27.90;88.60
52203;DHT22;38173;52.850;6.970;2023-06-22T12:08:22;28.10;90.80
52203;DHT22;38173;52.850;6.970;2023-06-22T12:10:51;28.20;89.70
52203;DHT22;38173;52.850;6.970;2023-06-22T12:13:23;28.20;89.90
52203;DHT22;38173;52.850;6.970;2023-06-22T12:16:01;28.40;91.60
52203;DHT22;38173;52.850;6.970;2023-06-22T12:18:28;28.40;90.80
52203;DHT22;38173;52.850;6.970;2023-06-22T12:20:53;28.50;91.20
52203;DHT22;38173;52.850;6.970;2023-06-22T12:23:19;28.40;91.00
52203;DHT22;38173;52.850;6.970;2023-06-22T12:25:51;28.40;89.60
52203;DHT22;38173;52.850;6.970;2023-06-22T12:28:17;28.30;87.30
52203;DHT22;38173;52.850;6.970;2023-06-22T12:30:43;28.20;90.40
52203;DHT22;38173;52.850;6.970;2023-06-22T12:33:10;28.10;90.10
52203;DHT22;38173;52.850;6.970;2023-06-22T12:35:46;28.10;90.30
52203;DHT22;38173;52.850;6.970;2023-06-22T12:38:17;28.00;90.30
52203;DHT22;38173;52.850;6.970;2023-06-22T12:40:45;27.80;88.10
52203;DHT22;38173;52.850;6.970;2023-06-22T12:43:13;27.60;87.70
52203;DHT22;38173;52.850;6.970;2023-06-22T12:45:39;27.50;88.70
52203;DHT22;38173;52.850;6.970;2023-06-22T12:48:06;27.40;89.20
52203;DHT22;38173;52.850;6.970;2023-06-22T12:50:32;27.50;89.60
52203;DHT22;38173;52.850;6.970;2023-06-22T12:52:57;27.50;90.20
52203;DHT22;38173;52.850;6.970;2023-06-22T12:55:23;27.50;88.20
52203;DHT22;38173;52.850;6.970;2023-06-22T12:57:55;27.40;88.70
52203;DHT22;38173;52.850;6.970;2023-06-22T13:00:21;27.30;89.80
52203;DHT22;38173;52.850;6.970;2023-06-22T13:02:57;27.30;91.30
52203;DHT22;38173;52.850;6.970;2023-06-22T13:05:23;27.20;91.40
52203;DHT22;38173;52.850;6.970;2023-06-22T13:07:49;27.00;89.50
52203;DHT22;38173;52.850;6.970;2023-06-22T13:10:15;26.90;90.40
52203;DHT22;38173;52.850;6.970;2023-06-22T13:12:44;26.70;90.20
52203;DHT22;38173;52.850;6.970;2023-06-22T13:15:11;26.50;91.00
52203;DHT22;38173;52.850;6.970;2023-06-22T13:17:37;26.40;91.00
52203;DHT22;38173;52.850;6.970;2023-06-22T13:20:06;26.40;91.00
52203;DHT22;38173;52.850;6.970;2023-06-22T13:22:46;26.30;92.00
52203;DHT22;38173;52.850;6.970;2023-06-22T13:25:12;26.30;92.70
52203;DHT22;38173;52.850;6.970;2023-06-22T13:27:39;26.30;93.10
52203;DHT22;38173;52.850;6.970;2023-06-22T13:30:08;26.20;93.40
52203;DHT22;38173;52.850;6.970;2023-06-22T13:32:34;26.20;93.00
52203;DHT22;38173;52.850;6.970;2023-06-22T13:35:03;26.20;92.50
52203;DHT22;38173;52.850;6.970;2023-06-22T13:37:29;26.20;92.40
52203;DHT22;38173;52.850;6.970;2023-06-22T13:39:55;26.20;92.50
52203;DHT22;38173;52.850;6.970;2023-06-22T13:42:21;26.20;92.80
52203;DHT22;38173;52.850;6.970;2023-06-22T13:44:47;26.20;93.50
52203;DHT22;38173;52.850;6.970;2023-06-22T13:47:13;26.20;94.50
52203;DHT22;38173;52.850;6.970;2023-06-22T13:49:39;26.10;94.00
52203;DHT22;38173;52.850;6.970;2023-06-22T13:52:14;26.10;94.40
52203;DHT22;38173;52.850;6.970;2023-06-22T13:54:41;26.00;94.10
52203;DHT22;38173;52.850;6.970;2023-06-22T13:57:07;26.00;94.60
52203;DHT22;38173;52.850;6.970;2023-06-22T13:59:34;25.90;93.80
52203;DHT22;38173;52.850;6.970;2023-06-22T14:02:04;25.90;94.40
52203;DHT22;38173;52.850;6.970;2023-06-22T14:04:36;25.80;95.00
52203;DHT22;38173;52.850;6.970;2023-06-22T14:07:02;25.80;94.90
52203;DHT22;38173;52.850;6.970;2023-06-22T14:09:37;25.80;95.00
52203;DHT22;38173;52.850;6.970;2023-06-22T14:12:10;25.80;95.10
52203;DHT22;38173;52.850;6.970;2023-06-22T14:14:36;25.70;95.50
52203;DHT22;38173;52.850;6.970;2023-06-22T14:17:01;25.70;95.40
52203;DHT22;38173;52.850;6.970;2023-06-22T14:19:35;25.70;96.30
52203;DHT22;38173;52.850;6.970;2023-06-22T14:22:10;25.70;96.80
52203;DHT22;38173;52.850;6.970;2023-06-22T14:24:37;25.70;97.20
52203;DHT22;38173;52.850;6.970;2023-06-22T14:27:05;25.80;98.30
52203;DHT22;38173;52.850;6.970;2023-06-22T14:29:34;25.70;99.40
52203;DHT22;38173;52.850;6.970;2023-06-22T14:32:00;25.70;99.70
52203;DHT22;38173;52.850;6.970;2023-06-22T14:34:26;25.60;99.90
52203;DHT22;38173;52.850;6.970;2023-06-22T14:36:54;25.60;99.90
52203;DHT22;38173;52.850;6.970;2023-06-22T14:39:32;25.50;99.90
52203;DHT22;38173;52.850;6.970;2023-06-22T14:42:18;25.40;99.90
52203;DHT22;38173;52.850;6.970;2023-06-22T14:44:44;25.40;99.90
52203;DHT22;38173;52.850;6.970;2023-06-22T14:47:13;25.30;99.90
52203;DHT22;38173;52.850;6.970;2023-06-22T14:49:39;25.30;99.90
52203;DHT22;38173;52.850;6.970;2023-06-22T14:52:06;25.30;99.90
52203;DHT22;38173;52.850;6.970;2023-06-22T14:54:33;25.30;99.90
52203;DHT22;38173;52.850;6.970;2023-06-22T14:56:59;25.20;99.90
52203;DHT22;38173;52.850;6.970;2023-06-22T14:59:24;25.10;99.90
52203;DHT22;38173;52.850;6.970;2023-06-22T15:01:55;25.10;99.90
52203;DHT22;38173;52.850;6.970;2023-06-22T15:04:25;25.00;99.90
52203;DHT22;38173;52.850;6.970;2023-06-22T15:06:57;25.00;99.90
52203;DHT22;38173;52.850;6.970;2023-06-22T15:09:23;24.80;99.90
52203;DHT22;38173;52.850;6.970;2023-06-22T15:11:53;24.70;99.90
52203;DHT22;38173;52.850;6.970;2023-06-22T15:14:21;24.50;99.90
52203;DHT22;38173;52.850;6.970;2023-06-22T15:16:49;24.40;99.90
52203;DHT22;38173;52.850;6.970;2023-06-22T15:19:15;24.30;99.90
52203;DHT22;38173;52.850;6.970;2023-06-22T15:21:42;24.10;99.90
52203;DHT22;38173;52.850;6.970;2023-06-22T15:24:15;23.90;99.90
52203;DHT22;38173;52.850;6.970;2023-06-22T15:26:41;23.80;99.90
52203;DHT22;38173;52.850;6.970;2023-06-22T15:29:09;23.60;99.90
52203;DHT22;38173;52.850;6.970;2023-06-22T15:31:36;23.40;99.90
52203;DHT22;38173;52.850;6.970;2023-06-22T15:34:05;23.20;99.90
52203;DHT22;38173;52.850;6.970;2023-06-22T15:36:37;23.00;99.90
52203;DHT22;38173;52.850;6.970;2023-06-22T15:39:12;22.90;99.90
52203;DHT22;38173;52.850;6.970;2023-06-22T15:41:58;22.80;99.90
52203;DHT22;38173;52.850;6.970;2023-06-22T15:44:27;22.50;99.90
52203;DHT22;38173;52.850;6.970;2023-06-22T15:46:57;22.30;99.90